Terminal Aerodrome Forecast
Issued by NWS

Home | Current Version | Previous Version | Graphics & Text | Print | Product List | Glossary On
Versions: 1 2 3 4 5 6 7 8 9 10 11 12 13 14 15 16 17 18 19 20 21 22
000
FTUS43 KMPX 251700
TAFRWF
TAF
KRWF 251740Z 2518/2618 24004KT 6SM BR OVC050
     FM252200 35005KT P6SM -SN SCT009 OVC015
      TEMPO 2600/2603 5SM -SN
     FM260500 35007KT 6SM BR OVC012=

USA.gov is the U.S. government's official web portal to all federal, state and local government web resources and services.